createdAt,value
2018-12-19T00:00:24.599Z,4.44
2018-12-19T00:02:52.032Z,4.43
2018-12-19T00:05:19.482Z,4.48
2018-12-19T00:07:46.850Z,4.63
2018-12-19T00:10:14.242Z,4.77
2018-12-19T00:12:41.619Z,4.84
2018-12-19T00:15:09.034Z,4.93
2018-12-19T00:17:36.410Z,4.96
2018-12-19T00:20:05.335Z,4.99
2018-12-19T00:22:32.711Z,5.06
2018-12-19T00:25:00.322Z,5.08
2018-12-19T00:27:27.711Z,5.18
2018-12-19T00:29:55.098Z,5.16
2018-12-19T00:32:22.471Z,5.23
2018-12-19T00:34:49.842Z,5.31
2018-12-19T00:37:17.218Z,5.33
2018-12-19T00:39:44.618Z,5.29
2018-12-19T00:42:12.017Z,5.29
2018-12-19T00:44:39.479Z,5.34
2018-12-19T00:47:06.846Z,5.34
2018-12-19T00:49:34.250Z,5.36
2018-12-19T00:52:01.632Z,5.33
2018-12-19T00:54:28.998Z,5.40
2018-12-19T00:56:56.390Z,5.35
2018-12-19T00:59:23.757Z,5.36
2018-12-19T01:01:51.153Z,5.32
2018-12-19T01:04:18.526Z,5.35
2018-12-19T01:06:45.894Z,5.31
2018-12-19T01:09:16.019Z,5.37
2018-12-19T01:11:42.686Z,5.34
2018-12-19T01:14:10.063Z,5.41
2018-12-19T01:16:37.430Z,5.38
2018-12-19T01:19:04.830Z,5.38
2018-12-19T01:21:32.225Z,5.38
2018-12-19T01:23:59.608Z,5.45
2018-12-19T01:26:26.998Z,5.41
2018-12-19T01:28:54.370Z,5.43
2018-12-19T01:31:21.742Z,5.49
2018-12-19T01:33:49.132Z,5.57
2018-12-19T01:36:16.589Z,5.54
2018-12-19T01:38:44.076Z,5.55
2018-12-19T01:41:11.458Z,5.55
2018-12-19T01:43:38.834Z,5.54
2018-12-19T01:46:06.204Z,5.53
2018-12-19T01:48:33.585Z,5.60
2018-12-19T01:51:00.974Z,5.66
2018-12-19T01:53:28.350Z,5.66
2018-12-19T01:55:56.135Z,5.68
2018-12-19T01:58:23.515Z,5.70
2018-12-19T02:00:50.886Z,5.70
2018-12-19T02:03:18.302Z,5.71
2018-12-19T02:05:45.702Z,5.70
2018-12-19T02:08:13.070Z,5.72
2018-12-19T02:10:40.470Z,5.69
2018-12-19T02:13:07.860Z,5.61
2018-12-19T02:15:35.243Z,5.58
2018-12-19T02:18:02.622Z,5.47
2018-12-19T02:20:30.002Z,5.47
2018-12-19T02:22:57.404Z,5.50
2018-12-19T02:25:24.863Z,5.51
2018-12-19T02:27:52.234Z,5.53
2018-12-19T02:30:19.652Z,5.60
2018-12-19T02:32:47.101Z,5.63
2018-12-19T02:35:14.505Z,5.60
2018-12-19T02:37:41.878Z,5.64
2018-12-19T02:40:09.355Z,5.63
2018-12-19T02:42:36.746Z,5.67
2018-12-19T02:45:04.664Z,5.66
2018-12-19T02:47:32.066Z,5.65
2018-12-19T02:49:59.442Z,5.68
2018-12-19T02:52:26.810Z,5.66
2018-12-19T02:54:54.191Z,5.61
2018-12-19T02:57:21.576Z,5.60
2018-12-19T02:59:48.975Z,5.60
2018-12-19T03:02:16.422Z,5.66
2018-12-19T03:04:43.814Z,5.64
2018-12-19T03:07:11.251Z,5.61
2018-12-19T03:09:42.970Z,5.60
2018-12-19T03:12:07.988Z,5.56
2018-12-19T03:14:35.363Z,5.59
2018-12-19T03:17:02.750Z,5.60
2018-12-19T03:19:30.135Z,5.57
2018-12-19T03:21:57.514Z,5.50
2018-12-19T03:24:24.885Z,5.50
2018-12-19T03:26:52.278Z,5.57
2018-12-19T03:29:19.656Z,5.51
2018-12-19T03:31:47.028Z,5.49
2018-12-19T03:34:14.419Z,5.55
2018-12-19T03:36:41.810Z,5.42
2018-12-19T03:39:09.192Z,5.54
2018-12-19T03:41:36.674Z,5.41
2018-12-19T03:44:04.107Z,5.42
2018-12-19T03:46:31.567Z,5.53
2018-12-19T03:48:58.966Z,5.61
2018-12-19T03:51:26.449Z,5.61
2018-12-19T03:53:54.249Z,5.64
2018-12-19T03:56:21.645Z,5.60
2018-12-19T03:58:49.022Z,5.58
2018-12-19T04:01:16.395Z,5.60
2018-12-19T04:03:43.769Z,5.58
2018-12-19T04:06:11.181Z,5.60
2018-12-19T04:08:38.623Z,5.59
2018-12-19T04:11:06.097Z,5.75
2018-12-19T04:13:33.471Z,5.83
2018-12-19T04:16:00.943Z,5.81
2018-12-19T04:18:28.420Z,5.78
2018-12-19T04:20:55.886Z,5.79
2018-12-19T04:23:23.337Z,5.74
2018-12-19T04:25:50.791Z,5.73
2018-12-19T04:28:18.166Z,5.79
2018-12-19T04:30:45.622Z,5.86
2018-12-19T04:33:12.995Z,5.85
2018-12-19T04:35:40.689Z,5.90
2018-12-19T04:38:08.063Z,5.95
2018-12-19T04:40:35.472Z,5.99
2018-12-19T04:43:02.916Z,5.90
2018-12-19T04:45:30.289Z,6.03
2018-12-19T04:47:57.678Z,6.07
2018-12-19T04:50:25.059Z,5.95
2018-12-19T04:52:52.432Z,5.95
2018-12-19T04:55:19.807Z,6.04
2018-12-19T04:57:47.179Z,6.11
2018-12-19T05:00:14.584Z,6.11
2018-12-19T05:02:42.041Z,6.15
2018-12-19T05:05:09.416Z,6.23
2018-12-19T05:07:36.786Z,6.31
2018-12-19T05:10:04.501Z,6.12
2018-12-19T05:12:31.894Z,6.15
2018-12-19T05:14:59.270Z,6.20
2018-12-19T05:17:26.651Z,6.20
2018-12-19T05:19:54.446Z,6.25
2018-12-19T05:22:21.818Z,6.27
2018-12-19T05:24:49.194Z,6.34
2018-12-19T05:27:16.576Z,6.46
2018-12-19T05:29:43.953Z,6.38
2018-12-19T05:32:11.387Z,6.54
2018-12-19T05:34:38.784Z,6.56
2018-12-19T05:37:06.192Z,6.65
2018-12-19T05:39:33.570Z,6.61
2018-12-19T05:42:00.976Z,6.50
2018-12-19T05:44:28.351Z,6.50
2018-12-19T05:46:55.754Z,6.43
2018-12-19T05:49:23.151Z,6.40
2018-12-19T05:51:50.613Z,6.44
2018-12-19T05:54:18.000Z,6.41
2018-12-19T05:56:45.377Z,6.46
2018-12-19T05:59:12.751Z,6.50
2018-12-19T06:01:40.318Z,6.56
2018-12-19T06:04:07.715Z,6.52
2018-12-19T06:06:35.102Z,6.54
2018-12-19T06:09:02.494Z,6.61
2018-12-19T06:11:29.885Z,6.49
2018-12-19T06:13:57.266Z,6.57
2018-12-19T06:16:24.644Z,6.57
2018-12-19T06:18:52.083Z,6.42
2018-12-19T06:21:19.462Z,6.36
2018-12-19T06:23:46.859Z,6.41
2018-12-19T06:26:14.342Z,6.40
2018-12-19T06:28:41.723Z,6.42
2018-12-19T06:31:09.098Z,6.42
2018-12-19T06:33:36.991Z,6.43
2018-12-19T06:36:04.491Z,6.38
2018-12-19T06:38:31.870Z,6.33
2018-12-19T06:40:59.354Z,6.35
2018-12-19T06:43:26.737Z,6.36
2018-12-19T06:45:54.116Z,6.39
2018-12-19T06:48:21.514Z,6.44
2018-12-19T06:50:48.910Z,6.50
2018-12-19T06:53:16.306Z,6.50
2018-12-19T06:55:43.692Z,6.51
2018-12-19T06:58:11.070Z,6.55
2018-12-19T07:00:38.507Z,6.50
2018-12-19T07:03:05.887Z,6.64
2018-12-19T07:05:33.280Z,6.57
2018-12-19T07:08:00.731Z,6.64
2018-12-19T07:10:28.114Z,6.66
2018-12-19T07:12:55.596Z,6.73
2018-12-19T07:15:22.970Z,6.76
2018-12-19T07:17:50.362Z,6.76
2018-12-19T07:20:17.734Z,6.80
2018-12-19T07:22:45.114Z,6.87
2018-12-19T07:25:12.574Z,6.92
2018-12-19T07:27:39.963Z,6.87
2018-12-19T07:30:07.880Z,6.82
2018-12-19T07:32:35.369Z,6.92
2018-12-19T07:35:02.759Z,6.96
2018-12-19T07:37:30.134Z,6.97
2018-12-19T07:39:57.520Z,7.00
2018-12-19T07:42:24.899Z,7.06
2018-12-19T07:44:52.274Z,7.08
2018-12-19T07:47:19.682Z,7.07
2018-12-19T07:49:47.058Z,7.09
2018-12-19T07:52:14.438Z,6.98
2018-12-19T07:54:41.830Z,6.95
2018-12-19T07:57:09.217Z,7.02
2018-12-19T07:59:36.603Z,7.07
2018-12-19T08:02:04.014Z,7.09
2018-12-19T08:04:31.403Z,7.02
2018-12-19T08:06:58.805Z,7.02
2018-12-19T08:09:26.202Z,7.13
2018-12-19T08:11:53.590Z,7.14
2018-12-19T08:14:20.968Z,7.24
2018-12-19T08:16:48.346Z,7.27
2018-12-19T08:19:15.719Z,7.30
2018-12-19T08:21:43.178Z,7.32
2018-12-19T08:24:10.558Z,7.37
2018-12-19T08:26:37.955Z,7.39
2018-12-19T08:29:05.354Z,7.41
2018-12-19T08:31:32.738Z,7.42
2018-12-19T08:34:00.521Z,7.37
2018-12-19T08:36:27.924Z,7.41
2018-12-19T08:38:55.370Z,7.44
2018-12-19T08:41:22.744Z,7.39
2018-12-19T08:43:50.150Z,7.44
2018-12-19T08:46:17.518Z,7.49
2018-12-19T08:48:44.980Z,7.55
2018-12-19T08:51:12.466Z,7.51
2018-12-19T08:53:39.843Z,7.47
2018-12-19T08:56:07.230Z,7.55
2018-12-19T08:58:34.602Z,7.60
2018-12-19T09:01:01.973Z,7.62
2018-12-19T09:03:29.370Z,7.67
2018-12-19T09:05:56.734Z,7.65
2018-12-19T09:08:24.110Z,7.70
2018-12-19T09:10:51.483Z,7.69
2018-12-19T09:13:18.866Z,7.74
2018-12-19T09:15:50.767Z,7.71
2018-12-19T09:18:19.078Z,7.84
2018-12-19T09:20:46.697Z,7.88
2018-12-19T09:23:14.610Z,7.86
2018-12-19T09:25:41.997Z,7.95
2018-12-19T09:28:09.405Z,7.98
2018-12-19T09:30:36.784Z,8.00
2018-12-19T09:33:04.172Z,8.13
2018-12-19T09:35:31.642Z,8.09
2018-12-19T09:37:59.013Z,8.12
2018-12-19T09:40:26.382Z,8.14
2018-12-19T09:42:53.747Z,8.15
2018-12-19T09:45:21.110Z,8.16
2018-12-19T09:47:48.502Z,8.10
2018-12-19T09:50:15.893Z,8.16
2018-12-19T09:52:43.350Z,8.17
2018-12-19T09:55:10.718Z,8.14
2018-12-19T09:57:38.416Z,8.15
2018-12-19T10:00:10.318Z,8.21
2018-12-19T10:02:37.691Z,8.21
2018-12-19T10:05:05.082Z,8.25
2018-12-19T10:07:32.458Z,8.20
2018-12-19T10:09:59.896Z,8.20
2018-12-19T10:12:27.247Z,8.12
2018-12-19T10:14:54.619Z,8.18
2018-12-19T10:17:21.999Z,8.23
2018-12-19T10:19:49.374Z,8.18
2018-12-19T10:22:18.658Z,8.08
2018-12-19T10:24:51.530Z,7.97
2018-12-19T10:27:21.489Z,7.86
2018-12-19T10:29:48.966Z,7.92
2018-12-19T10:32:16.359Z,7.81
2018-12-19T10:34:43.864Z,7.85
2018-12-19T10:37:11.254Z,7.83
2018-12-19T10:39:38.643Z,7.84
2018-12-19T10:42:06.016Z,7.81
2018-12-19T10:44:33.378Z,7.70
2018-12-19T10:47:00.770Z,7.68
2018-12-19T10:49:28.182Z,7.59
2018-12-19T10:51:55.565Z,7.60
2018-12-19T10:54:22.931Z,7.64
2018-12-19T10:56:50.327Z,7.60
2018-12-19T10:59:17.707Z,7.65
2018-12-19T11:01:45.078Z,7.69
2018-12-19T11:04:12.475Z,7.61
2018-12-19T11:06:39.947Z,7.70
2018-12-19T11:09:07.522Z,7.62
2018-12-19T11:11:34.914Z,7.83
2018-12-19T11:14:02.306Z,7.85
2018-12-19T11:16:29.702Z,7.81
2018-12-19T11:18:57.078Z,7.81
2018-12-19T11:21:24.467Z,7.94
2018-12-19T11:23:51.875Z,7.95
2018-12-19T11:26:19.322Z,8.06
2018-12-19T11:28:46.698Z,8.22
2018-12-19T11:31:14.070Z,8.26
2018-12-19T11:33:41.467Z,8.31
2018-12-19T11:36:10.165Z,8.22
2018-12-19T11:38:37.728Z,8.30
2018-12-19T11:41:05.107Z,8.31
2018-12-19T11:43:32.485Z,8.32
2018-12-19T11:45:59.866Z,8.34
2018-12-19T11:48:27.242Z,8.49
2018-12-19T11:50:54.685Z,8.55
2018-12-19T11:53:22.062Z,8.54
2018-12-19T11:55:49.450Z,8.66
2018-12-19T11:58:16.827Z,8.74
2018-12-19T12:00:44.215Z,8.83
2018-12-19T12:03:11.594Z,8.82
2018-12-19T12:05:38.969Z,8.87
2018-12-19T12:08:06.414Z,8.83
2018-12-19T12:10:33.798Z,8.89
2018-12-19T12:13:01.175Z,8.97
2018-12-19T12:15:28.551Z,9.00
2018-12-19T12:17:55.922Z,9.11
2018-12-19T12:20:23.306Z,9.15
2018-12-19T12:22:50.674Z,9.20
2018-12-19T12:25:18.041Z,9.22
2018-12-19T12:27:45.414Z,9.19
2018-12-19T12:30:12.810Z,9.26
2018-12-19T12:32:40.220Z,9.31
2018-12-19T12:35:07.726Z,9.32
2018-12-19T12:37:35.121Z,9.31
2018-12-19T12:40:03.021Z,9.31
2018-12-19T12:42:30.453Z,9.26
2018-12-19T12:44:57.962Z,9.32
2018-12-19T12:47:25.473Z,9.36
2018-12-19T12:49:52.963Z,9.29
2018-12-19T12:52:20.354Z,9.28
2018-12-19T12:54:47.750Z,9.29
2018-12-19T12:57:15.118Z,9.26
2018-12-19T12:59:42.527Z,9.26
2018-12-19T13:02:09.910Z,9.28
2018-12-19T13:04:37.278Z,9.22
2018-12-19T13:07:04.641Z,9.28
2018-12-19T13:09:32.014Z,9.24
2018-12-19T13:11:59.387Z,9.27
2018-12-19T13:14:26.874Z,9.27
2018-12-19T13:16:54.262Z,9.25
2018-12-19T13:19:21.634Z,9.31
2018-12-19T13:21:49.040Z,9.30
2018-12-19T13:24:16.430Z,9.32
2018-12-19T13:26:43.800Z,9.37
2018-12-19T13:29:11.173Z,9.43
2018-12-19T13:31:38.538Z,9.38
2018-12-19T13:34:05.906Z,9.45
2018-12-19T13:36:33.275Z,9.49
2018-12-19T13:39:00.660Z,9.44
2018-12-19T13:41:28.026Z,9.50
2018-12-19T13:43:55.418Z,9.46
2018-12-19T13:46:22.786Z,9.51
2018-12-19T13:48:50.159Z,9.54
2018-12-19T13:51:17.527Z,9.55
2018-12-19T13:53:44.918Z,9.58
2018-12-19T13:56:12.290Z,9.58
2018-12-19T13:58:39.786Z,9.58
2018-12-19T14:01:07.182Z,9.59
2018-12-19T14:03:34.554Z,9.61
2018-12-19T14:06:01.927Z,9.68
2018-12-19T14:08:29.302Z,9.69
2018-12-19T14:10:56.710Z,9.69
2018-12-19T14:13:24.083Z,9.69
2018-12-19T14:15:51.455Z,9.69
2018-12-19T14:18:18.822Z,9.73
2018-12-19T14:20:46.216Z,9.73
2018-12-19T14:23:13.587Z,9.79
2018-12-19T14:25:41.039Z,9.78
2018-12-19T14:28:08.446Z,9.82
2018-12-19T14:30:35.893Z,9.86
2018-12-19T14:33:03.315Z,9.82
2018-12-19T14:35:30.722Z,9.83
2018-12-19T14:37:58.087Z,9.84
2018-12-19T14:40:25.486Z,9.79
2018-12-19T14:42:52.878Z,9.84
2018-12-19T14:45:20.245Z,9.84
2018-12-19T14:47:47.618Z,9.83
2018-12-19T14:50:14.987Z,9.84
2018-12-19T14:52:42.355Z,9.81
2018-12-19T14:55:09.749Z,9.81
2018-12-19T14:57:37.124Z,9.82
2018-12-19T15:00:07.939Z,9.83
2018-12-19T15:02:35.306Z,9.84
2018-12-19T15:05:02.718Z,9.82
2018-12-19T15:07:30.085Z,9.80
2018-12-19T15:09:57.481Z,9.74
2018-12-19T15:12:25.843Z,9.76
2018-12-19T15:14:53.626Z,9.75
2018-12-19T15:17:21.082Z,9.69
2018-12-19T15:19:48.455Z,9.68
2018-12-19T15:22:15.844Z,9.68
2018-12-19T15:24:43.235Z,9.57
2018-12-19T15:27:10.754Z,9.52
2018-12-19T15:29:38.494Z,9.54
2018-12-19T15:32:06.014Z,9.49
2018-12-19T15:34:33.386Z,9.37
2018-12-19T15:37:00.842Z,9.38
2018-12-19T15:39:28.332Z,9.43
2018-12-19T15:41:55.718Z,9.48
2018-12-19T15:44:23.126Z,9.50
2018-12-19T15:46:50.518Z,9.48
2018-12-19T15:49:17.987Z,9.47
2018-12-19T15:51:45.438Z,9.45
2018-12-19T15:54:12.819Z,9.48
2018-12-19T15:56:40.276Z,9.52
2018-12-19T15:59:07.661Z,9.49
2018-12-19T16:01:35.178Z,9.46
2018-12-19T16:04:02.555Z,9.44
2018-12-19T16:06:29.931Z,9.40
2018-12-19T16:08:57.308Z,9.37
2018-12-19T16:11:24.694Z,9.35
2018-12-19T16:13:52.156Z,9.34
2018-12-19T16:16:19.622Z,9.30
2018-12-19T16:18:46.994Z,9.30
2018-12-19T16:21:14.473Z,9.28
2018-12-19T16:23:41.834Z,9.30
2018-12-19T16:26:09.230Z,9.30
2018-12-19T16:28:36.598Z,9.28
2018-12-19T16:31:03.998Z,9.27
2018-12-19T16:33:31.363Z,9.26
2018-12-19T16:35:58.826Z,9.24
2018-12-19T16:38:26.210Z,9.23
2018-12-19T16:40:53.610Z,9.21
2018-12-19T16:43:20.999Z,9.20
2018-12-19T16:45:48.366Z,9.16
2018-12-19T16:48:16.259Z,9.16
2018-12-19T16:50:43.636Z,9.06
2018-12-19T16:53:11.021Z,9.03
2018-12-19T16:55:38.412Z,8.98
2018-12-19T16:58:05.799Z,8.95
2018-12-19T17:00:33.170Z,8.88
2018-12-19T17:03:00.559Z,8.82
2018-12-19T17:05:27.979Z,8.83
2018-12-19T17:07:55.342Z,8.84
2018-12-19T17:10:22.719Z,8.84
2018-12-19T17:12:52.831Z,8.84
2018-12-19T17:15:19.442Z,8.81
2018-12-19T17:17:46.814Z,8.79
2018-12-19T17:20:14.210Z,8.84
2018-12-19T17:22:41.578Z,8.85
2018-12-19T17:25:08.958Z,8.90
2018-12-19T17:27:36.323Z,8.91
2018-12-19T17:30:04.125Z,8.93
2018-12-19T17:32:31.631Z,8.90
2018-12-19T17:34:59.002Z,8.83
2018-12-19T17:37:26.434Z,8.72
2018-12-19T17:39:53.811Z,8.72
2018-12-19T17:42:21.183Z,8.75
2018-12-19T17:44:48.665Z,8.80
2018-12-19T17:47:16.033Z,8.74
2018-12-19T17:49:43.514Z,8.81
2018-12-19T17:52:10.875Z,8.90
2018-12-19T17:54:38.254Z,8.95
2018-12-19T17:57:05.713Z,8.91
2018-12-19T17:59:33.074Z,8.87
2018-12-19T18:02:00.463Z,8.92
2018-12-19T18:04:27.834Z,8.90
2018-12-19T18:06:55.231Z,8.92
2018-12-19T18:09:23.148Z,8.92
2018-12-19T18:11:50.606Z,8.92
2018-12-19T18:14:17.970Z,8.94
2018-12-19T18:16:45.346Z,9.00
2018-12-19T18:19:12.720Z,9.04
2018-12-19T18:21:40.099Z,9.05
2018-12-19T18:24:07.469Z,9.11
2018-12-19T18:26:34.858Z,9.15
2018-12-19T18:29:02.251Z,9.23
2018-12-19T18:31:29.647Z,9.26
2018-12-19T18:33:57.006Z,9.21
2018-12-19T18:36:24.398Z,9.26
2018-12-19T18:38:51.771Z,9.24
2018-12-19T18:41:19.142Z,9.26
2018-12-19T18:43:46.511Z,9.22
2018-12-19T18:46:13.887Z,9.22
2018-12-19T18:48:41.250Z,9.21
2018-12-19T18:51:08.630Z,9.18
2018-12-19T18:53:36.003Z,9.10
2018-12-19T18:56:03.417Z,9.10
2018-12-19T18:58:30.848Z,9.01
2018-12-19T19:00:58.265Z,8.98
2018-12-19T19:03:25.752Z,9.01
2018-12-19T19:05:53.215Z,9.06
2018-12-19T19:08:20.630Z,9.12
2018-12-19T19:10:48.030Z,9.06
2018-12-19T19:13:19.646Z,9.05
2018-12-19T19:15:44.779Z,9.05
2018-12-19T19:18:12.198Z,9.04
2018-12-19T19:20:39.575Z,8.91
2018-12-19T19:23:06.944Z,8.95
2018-12-19T19:25:34.403Z,8.93
2018-12-19T19:28:01.766Z,8.84
2018-12-19T19:30:29.176Z,8.91
2018-12-19T19:32:56.543Z,8.94
2018-12-19T19:35:23.919Z,8.99
2018-12-19T19:37:51.294Z,9.03
2018-12-19T19:40:18.702Z,8.98
2018-12-19T19:42:46.062Z,8.98
2018-12-19T19:45:13.491Z,9.00
2018-12-19T19:47:40.867Z,8.95
2018-12-19T19:50:08.267Z,8.93
2018-12-19T19:52:35.655Z,8.95
2018-12-19T19:55:03.071Z,8.98
2018-12-19T19:57:30.470Z,9.16
2018-12-19T19:59:57.842Z,9.21
2018-12-19T20:02:25.230Z,9.17
2018-12-19T20:04:52.600Z,9.22
2018-12-19T20:07:19.958Z,9.21
2018-12-19T20:09:47.375Z,9.25
2018-12-19T20:12:14.750Z,9.31
2018-12-19T20:14:42.146Z,9.28
2018-12-19T20:17:09.555Z,9.26
2018-12-19T20:19:36.921Z,9.04
2018-12-19T20:22:04.382Z,9.15
2018-12-19T20:24:31.829Z,9.05
2018-12-19T20:26:59.214Z,9.01
2018-12-19T20:29:26.586Z,9.07
2018-12-19T20:31:54.049Z,8.96
2018-12-19T20:34:21.410Z,8.88
2018-12-19T20:36:48.782Z,8.89
2018-12-19T20:39:16.139Z,9.06
2018-12-19T20:41:43.507Z,8.93
2018-12-19T20:44:10.909Z,8.94
2018-12-19T20:46:38.311Z,8.88
2018-12-19T20:49:05.762Z,8.87
2018-12-19T20:51:33.154Z,8.94
2018-12-19T20:54:00.530Z,8.90
2018-12-19T20:56:27.912Z,8.75
2018-12-19T20:58:55.387Z,8.78
2018-12-19T21:01:22.838Z,8.85
2018-12-19T21:03:50.223Z,8.78
2018-12-19T21:06:17.624Z,8.81
2018-12-19T21:08:44.988Z,8.78
2018-12-19T21:11:12.442Z,8.80
2018-12-19T21:13:46.540Z,8.83
2018-12-19T21:16:09.162Z,8.81
2018-12-19T21:18:42.407Z,8.69
2018-12-19T21:21:09.821Z,8.81
2018-12-19T21:23:37.214Z,8.82
2018-12-19T21:26:04.610Z,8.89
2018-12-19T21:28:31.986Z,8.86
2018-12-19T21:30:59.370Z,8.87
2018-12-19T21:33:26.737Z,8.79
2018-12-19T21:35:54.150Z,8.82
2018-12-19T21:38:21.564Z,8.84
2018-12-19T21:40:49.868Z,8.84
2018-12-19T21:43:17.270Z,8.79
2018-12-19T21:45:51.619Z,8.78
2018-12-19T21:48:14.091Z,8.82
2018-12-19T21:50:41.458Z,8.74
2018-12-19T21:53:08.830Z,8.76
2018-12-19T21:55:36.193Z,8.61
2018-12-19T21:58:03.598Z,8.68
2018-12-19T22:00:31.647Z,8.59
2018-12-19T22:03:00.934Z,8.49
2018-12-19T22:05:28.326Z,8.51
2018-12-19T22:07:55.691Z,8.41
2018-12-19T22:10:23.054Z,8.50
2018-12-19T22:12:50.426Z,8.61
2018-12-19T22:15:17.799Z,8.56
2018-12-19T22:17:48.046Z,8.55
2018-12-19T22:20:15.475Z,8.57
2018-12-19T22:22:42.937Z,8.55
2018-12-19T22:25:10.448Z,8.56
2018-12-19T22:27:37.943Z,8.60
2018-12-19T22:30:07.084Z,8.58
2018-12-19T22:32:34.519Z,8.62
2018-12-19T22:35:01.959Z,8.66
2018-12-19T22:37:29.495Z,8.65
2018-12-19T22:39:56.886Z,8.60
2018-12-19T22:42:24.351Z,8.65
2018-12-19T22:44:51.759Z,8.55
2018-12-19T22:47:19.186Z,8.65
2018-12-19T22:49:46.599Z,8.71
2018-12-19T22:52:14.094Z,8.58
2018-12-19T22:54:41.538Z,8.62
2018-12-19T22:57:09.111Z,8.65
2018-12-19T22:59:36.607Z,8.55
2018-12-19T23:02:09.926Z,8.64
2018-12-19T23:04:37.315Z,8.64
2018-12-19T23:07:04.714Z,8.63
2018-12-19T23:09:32.162Z,8.61
2018-12-19T23:11:59.744Z,8.64
2018-12-19T23:14:27.191Z,8.52
2018-12-19T23:16:54.649Z,8.56
2018-12-19T23:19:22.140Z,8.59
2018-12-19T23:21:49.736Z,8.61
2018-12-19T23:24:17.219Z,8.59
2018-12-19T23:26:44.696Z,8.66
2018-12-19T23:29:12.147Z,8.59
2018-12-19T23:31:39.594Z,8.59
2018-12-19T23:34:07.038Z,8.64
2018-12-19T23:36:34.455Z,8.57
2018-12-19T23:39:01.814Z,8.62
2018-12-19T23:41:30.914Z,8.61
2018-12-19T23:43:58.458Z,8.61
2018-12-19T23:46:25.951Z,8.58
2018-12-19T23:48:53.363Z,8.55
2018-12-19T23:51:20.738Z,8.53
2018-12-19T23:53:48.201Z,8.52
2018-12-19T23:56:15.619Z,8.52
2018-12-19T23:58:43.015Z,8.48
